createdAt,value
2019-06-07T00:00:48.561Z,83.63
2019-06-07T00:01:48.550Z,83.43
2019-06-07T00:02:48.564Z,83.73
2019-06-07T00:03:48.548Z,83.73
2019-06-07T00:04:48.564Z,83.53
2019-06-07T00:05:48.547Z,84.75
2019-06-07T00:06:48.501Z,84.45
2019-06-07T00:07:48.541Z,83.84
2019-06-07T00:08:48.508Z,84.25
2019-06-07T00:09:48.492Z,84.86
2019-06-07T00:10:48.458Z,84.96
2019-06-07T00:11:48.446Z,84.59
2019-06-07T00:12:48.446Z,84.80
2019-06-07T00:13:48.437Z,84.80
2019-06-07T00:14:48.428Z,84.69
2019-06-07T00:15:48.413Z,84.59
2019-06-07T00:16:48.439Z,84.75
2019-06-07T00:17:48.396Z,84.75
2019-06-07T00:18:48.400Z,84.90
2019-06-07T00:19:48.405Z,84.34
2019-06-07T00:20:48.357Z,85.06
2019-06-07T00:22:29.632Z,85.16
2019-06-07T00:22:49.335Z,84.49
2019-06-07T00:23:48.332Z,85.00
2019-06-07T00:24:48.313Z,85.21
2019-06-07T00:25:48.310Z,85.00
2019-06-07T00:26:58.575Z,84.90
2019-06-07T00:27:49.287Z,85.00
2019-06-07T00:28:48.283Z,84.80
2019-06-07T00:29:48.264Z,84.39
2019-06-07T00:30:52.064Z,84.80
2019-06-07T00:31:48.234Z,85.00
2019-06-07T00:32:48.228Z,85.10
2019-06-07T00:33:48.239Z,85.30
2019-06-07T00:34:48.203Z,85.10
2019-06-07T00:35:48.210Z,84.90
2019-06-07T00:36:48.401Z,84.59
2019-06-07T00:37:48.191Z,84.80
2019-06-07T00:38:48.186Z,85.00
2019-06-07T00:40:12.805Z,84.69
2019-06-07T00:40:49.142Z,84.49
2019-06-07T00:41:48.128Z,84.59
2019-06-07T00:42:48.124Z,84.39
2019-06-07T00:43:48.129Z,84.80
2019-06-07T00:44:48.100Z,84.94
2019-06-07T00:45:48.085Z,85.55
2019-06-07T00:46:48.101Z,85.65
2019-06-07T00:47:48.090Z,85.55
2019-06-07T00:48:48.082Z,85.24
2019-06-07T00:49:48.057Z,85.45
2019-06-07T00:50:48.057Z,85.55
2019-06-07T00:51:51.018Z,85.51
2019-06-07T00:53:26.903Z,85.55
2019-06-07T00:53:49.027Z,85.24
2019-06-07T00:54:48.007Z,86.47
2019-06-07T00:55:47.982Z,85.24
2019-06-07T00:56:47.980Z,85.24
2019-06-07T00:57:47.974Z,86.67
2019-06-07T00:59:09.668Z,85.79
2019-06-07T00:59:48.951Z,86.30
2019-06-07T01:00:47.939Z,86.20
2019-06-07T01:01:47.920Z,86.51
2019-06-07T01:02:47.916Z,86.30
2019-06-07T01:03:47.898Z,86.16
2019-06-07T01:04:47.927Z,86.16
2019-06-07T01:05:47.881Z,86.16
2019-06-07T01:06:47.875Z,86.67
2019-06-07T01:07:47.851Z,85.55
2019-06-07T01:08:47.840Z,86.57
2019-06-07T01:09:47.846Z,85.55
2019-06-07T01:10:53.551Z,86.57
2019-06-07T01:11:48.830Z,85.65
2019-06-07T01:12:47.814Z,85.75
2019-06-07T01:13:47.788Z,85.45
2019-06-07T01:14:47.788Z,85.65
2019-06-07T01:15:47.766Z,85.45
2019-06-07T01:16:57.477Z,85.65
2019-06-07T01:18:33.009Z,86.77
2019-06-07T01:18:51.295Z,85.45
2019-06-07T01:19:47.745Z,85.59
2019-06-07T01:20:47.714Z,85.79
2019-06-07T01:21:47.731Z,86.30
2019-06-07T01:22:47.707Z,86.30
2019-06-07T01:24:08.230Z,86.41
2019-06-07T01:24:48.701Z,86.51
2019-06-07T01:25:47.664Z,86.51
2019-06-07T01:26:47.658Z,86.51
2019-06-07T01:27:47.639Z,86.61
2019-06-07T01:28:47.701Z,86.51
2019-06-07T01:29:47.639Z,86.51
2019-06-07T01:30:47.607Z,86.51
2019-06-07T01:31:47.596Z,86.30
2019-06-07T01:32:47.597Z,86.20
2019-06-07T01:33:51.185Z,86.20
2019-06-07T01:34:47.576Z,85.69
2019-06-07T01:35:47.568Z,86.71
2019-06-07T01:36:47.543Z,85.86
2019-06-07T01:37:47.535Z,86.51
2019-06-07T01:38:47.523Z,86.41
2019-06-07T01:39:47.532Z,86.51
2019-06-07T01:40:47.500Z,86.30
2019-06-07T01:41:47.491Z,86.20
2019-06-07T01:42:47.479Z,86.30
2019-06-07T01:43:47.469Z,86.20
2019-06-07T01:44:47.466Z,86.51
2019-06-07T01:45:47.458Z,85.59
2019-06-07T01:46:47.436Z,86.61
2019-06-07T01:47:47.438Z,86.51
2019-06-07T01:48:49.728Z,86.30
2019-06-07T01:49:47.432Z,86.20
2019-06-07T01:50:47.398Z,86.30
2019-06-07T01:51:47.384Z,86.71
2019-06-07T01:52:47.383Z,86.61
2019-06-07T01:53:47.359Z,86.67
2019-06-07T01:54:58.045Z,85.45
2019-06-07T01:55:48.349Z,86.71
2019-06-07T01:56:47.327Z,86.51
2019-06-07T01:57:48.485Z,86.61
2019-06-07T01:58:47.313Z,86.82
2019-06-07T01:59:47.339Z,86.41
2019-06-07T02:00:47.296Z,86.30
2019-06-07T02:01:47.285Z,86.51
2019-06-07T02:02:47.281Z,86.10
2019-06-07T02:03:47.283Z,86.41
2019-06-07T02:04:48.129Z,86.41
2019-06-07T02:05:47.255Z,86.51
2019-06-07T02:06:47.223Z,86.30
2019-06-07T02:07:47.213Z,86.51
2019-06-07T02:08:47.234Z,86.51
2019-06-07T02:09:47.194Z,86.71
2019-06-07T02:10:47.187Z,86.71
2019-06-07T02:11:47.169Z,86.51
2019-06-07T02:12:47.159Z,86.26
2019-06-07T02:13:47.157Z,86.41
2019-06-07T02:14:47.157Z,86.36
2019-06-07T02:15:47.150Z,86.06
2019-06-07T02:16:47.134Z,86.16
2019-06-07T02:17:47.124Z,86.26
2019-06-07T02:19:01.343Z,86.67
2019-06-07T02:19:48.083Z,85.65
2019-06-07T02:20:47.101Z,85.86
2019-06-07T02:21:47.081Z,85.55
2019-06-07T02:22:47.070Z,85.45
2019-06-07T02:23:47.046Z,85.51
2019-06-07T02:25:33.142Z,85.04
2019-06-07T02:25:50.482Z,85.35
2019-06-07T02:26:47.017Z,85.55
2019-06-07T02:27:47.001Z,85.51
2019-06-07T02:28:46.990Z,85.65
2019-06-07T02:29:46.982Z,85.24
2019-06-07T02:30:58.840Z,85.75
2019-06-07T02:31:47.956Z,85.10
2019-06-07T02:32:46.958Z,86.33
2019-06-07T02:33:46.951Z,86.36
2019-06-07T02:34:46.940Z,85.24
2019-06-07T02:35:46.936Z,85.82
2019-06-07T02:36:46.920Z,85.86
2019-06-07T02:37:46.906Z,85.41
2019-06-07T02:38:46.887Z,86.63
2019-06-07T02:39:46.878Z,85.51
2019-06-07T02:40:46.903Z,86.43
2019-06-07T02:41:46.855Z,86.53
2019-06-07T02:42:46.854Z,86.22
2019-06-07T02:43:46.834Z,86.22
2019-06-07T02:44:46.846Z,86.33
2019-06-07T02:45:46.836Z,86.47
2019-06-07T02:46:49.829Z,86.43
2019-06-07T02:47:46.791Z,86.33
2019-06-07T02:48:46.781Z,86.12
2019-06-07T02:49:46.776Z,86.53
2019-06-07T02:50:46.775Z,86.43
2019-06-07T02:51:46.756Z,86.43
2019-06-07T02:52:46.743Z,86.73
2019-06-07T02:53:46.765Z,86.12
2019-06-07T02:54:46.717Z,86.22
2019-06-07T02:56:34.349Z,86.53
2019-06-07T02:56:57.867Z,86.53
2019-06-07T02:57:47.690Z,85.82
2019-06-07T02:58:46.674Z,85.51
2019-06-07T03:00:07.032Z,86.63
2019-06-07T03:01:06.979Z,86.12
2019-06-07T03:01:47.690Z,86.22
2019-06-07T03:02:46.664Z,86.43
2019-06-07T03:03:46.626Z,86.33
2019-06-07T03:04:46.628Z,86.53
2019-06-07T03:05:46.621Z,85.51
2019-06-07T03:06:46.593Z,86.12
2019-06-07T03:07:46.587Z,85.71
2019-06-07T03:08:46.572Z,86.53
2019-06-07T03:09:46.560Z,86.53
2019-06-07T03:10:46.559Z,86.53
2019-06-07T03:11:46.541Z,86.22
2019-06-07T03:12:46.569Z,86.12
2019-06-07T03:13:46.516Z,86.22
2019-06-07T03:14:46.516Z,86.12
2019-06-07T03:15:50.185Z,86.63
2019-06-07T03:16:46.498Z,86.53
2019-06-07T03:17:46.482Z,86.47
2019-06-07T03:18:46.473Z,86.43
2019-06-07T03:19:46.457Z,86.53
2019-06-07T03:21:02.799Z,86.53
2019-06-07T03:21:47.432Z,86.47
2019-06-07T03:22:46.427Z,86.43
2019-06-07T03:23:46.412Z,86.53
2019-06-07T03:24:46.407Z,86.67
2019-06-07T03:25:46.399Z,86.67
2019-06-07T03:27:31.878Z,86.67
2019-06-07T03:27:50.178Z,86.67
2019-06-07T03:28:46.360Z,86.67
2019-06-07T03:29:46.347Z,86.57
2019-06-07T03:31:00.955Z,86.36
2019-06-07T03:31:48.343Z,86.57
2019-06-07T03:32:48.270Z,86.26
2019-06-07T03:33:46.339Z,86.36
2019-06-07T03:34:46.295Z,86.36
2019-06-07T03:35:46.283Z,86.47
2019-06-07T03:36:46.293Z,86.36
2019-06-07T03:37:46.263Z,86.16
2019-06-07T03:38:46.269Z,86.47
2019-06-07T03:39:46.262Z,86.77
2019-06-07T03:40:46.238Z,86.26
2019-06-07T03:42:05.259Z,86.36
2019-06-07T03:42:47.211Z,86.57
2019-06-07T03:43:46.211Z,86.43
2019-06-07T03:44:46.202Z,86.16
2019-06-07T03:45:46.178Z,86.47
2019-06-07T03:46:46.177Z,86.26
2019-06-07T03:47:46.182Z,86.33
2019-06-07T03:48:46.146Z,86.67
2019-06-07T03:49:46.155Z,86.22
2019-06-07T03:50:46.125Z,86.16
2019-06-07T03:51:46.128Z,86.57
2019-06-07T03:52:46.105Z,86.36
2019-06-07T03:53:46.097Z,86.33
2019-06-07T03:54:46.222Z,86.43
2019-06-07T03:55:46.071Z,86.36
2019-06-07T03:56:46.104Z,86.47
2019-06-07T03:58:30.247Z,86.36
2019-06-07T03:58:50.069Z,86.36
2019-06-07T03:59:46.075Z,86.36
2019-06-07T04:00:46.019Z,86.36
2019-06-07T04:01:46.047Z,86.47
2019-06-07T04:02:46.012Z,86.47
2019-06-07T04:03:51.430Z,86.47
2019-06-07T04:04:46.986Z,86.47
2019-06-07T04:05:45.967Z,86.12
2019-06-07T04:06:45.967Z,86.47
2019-06-07T04:07:45.976Z,86.26
2019-06-07T04:08:45.936Z,86.47
2019-06-07T04:09:45.931Z,86.16
2019-06-07T04:10:59.212Z,86.16
2019-06-07T04:11:46.921Z,86.16
2019-06-07T04:12:45.909Z,86.53
2019-06-07T04:13:45.888Z,85.45
2019-06-07T04:14:45.880Z,85.65
2019-06-07T04:15:45.915Z,86.57
2019-06-07T04:16:46.146Z,86.12
2019-06-07T04:18:01.251Z,86.57
2019-06-07T04:18:46.832Z,86.22
2019-06-07T04:19:45.835Z,86.57
2019-06-07T04:20:45.878Z,86.36
2019-06-07T04:21:45.799Z,86.47
2019-06-07T04:22:45.789Z,86.43
2019-06-07T04:23:45.976Z,86.43
2019-06-07T04:24:45.782Z,86.22
2019-06-07T04:25:45.754Z,86.26
2019-06-07T04:26:46.843Z,86.77
2019-06-07T04:27:45.741Z,86.67
2019-06-07T04:30:05.936Z,86.88
2019-06-07T04:30:46.701Z,86.98
2019-06-07T04:31:45.690Z,87.08
2019-06-07T04:32:45.692Z,86.94
2019-06-07T04:33:45.671Z,87.29
2019-06-07T04:34:45.676Z,86.94
2019-06-07T04:35:45.648Z,86.88
2019-06-07T04:37:46.634Z,86.83
2019-06-07T04:38:45.616Z,87.24
2019-06-07T04:39:45.646Z,87.49
2019-06-07T04:40:47.010Z,87.04
2019-06-07T04:41:45.587Z,87.14
2019-06-07T04:42:46.050Z,87.24
2019-06-07T04:43:45.586Z,87.08
2019-06-07T04:44:45.554Z,87.29
2019-06-07T04:45:50.795Z,87.29
2019-06-07T04:46:46.531Z,87.35
2019-06-07T04:47:45.582Z,87.04
2019-06-07T04:48:45.548Z,86.88
2019-06-07T04:49:45.519Z,87.35
2019-06-07T04:50:45.491Z,87.04
2019-06-07T04:51:45.501Z,87.04
2019-06-07T04:52:45.901Z,86.73
2019-06-07T04:53:45.466Z,86.22
2019-06-07T04:54:46.069Z,86.12
2019-06-07T04:55:45.440Z,86.12
2019-06-07T04:56:45.448Z,86.53
2019-06-07T04:57:45.446Z,86.22
2019-06-07T04:58:45.426Z,86.33
2019-06-07T05:00:52.086Z,85.61
2019-06-07T05:01:46.372Z,84.96
2019-06-07T05:02:45.366Z,86.39
2019-06-07T05:03:45.354Z,85.68
2019-06-07T05:04:45.359Z,85.47
2019-06-07T05:05:45.337Z,85.27
2019-06-07T05:06:45.322Z,84.96
2019-06-07T05:07:46.202Z,85.37
2019-06-07T05:08:45.311Z,85.27
2019-06-07T05:09:45.297Z,85.57
2019-06-07T05:10:45.284Z,85.06
2019-06-07T05:11:45.308Z,84.86
2019-06-07T05:12:45.273Z,84.25
2019-06-07T05:13:45.265Z,84.34
2019-06-07T05:14:45.246Z,84.55
2019-06-07T05:15:45.229Z,84.34
2019-06-07T05:16:45.217Z,85.16
2019-06-07T05:17:45.315Z,84.75
2019-06-07T05:18:45.194Z,84.55
2019-06-07T05:19:45.189Z,84.61
2019-06-07T05:20:45.177Z,84.20
2019-06-07T05:22:02.497Z,84.20
2019-06-07T05:22:46.228Z,84.61
2019-06-07T05:24:07.496Z,84.72
2019-06-07T05:24:46.193Z,83.70
2019-06-07T05:25:45.125Z,83.90
2019-06-07T05:26:45.130Z,83.49
2019-06-07T05:27:46.891Z,83.49
2019-06-07T05:28:45.108Z,83.90
2019-06-07T05:29:58.403Z,83.80
2019-06-07T05:31:04.997Z,83.18
2019-06-07T05:31:46.077Z,83.39
2019-06-07T05:32:46.095Z,83.09
2019-06-07T05:33:45.046Z,82.98
2019-06-07T05:34:47.439Z,82.78
2019-06-07T05:35:45.023Z,82.78
2019-06-07T05:36:45.301Z,82.88
2019-06-07T05:37:46.005Z,83.04
2019-06-07T05:38:45.293Z,82.84
2019-06-07T05:39:46.564Z,82.84
2019-06-07T05:40:48.795Z,82.64
2019-06-07T05:41:44.949Z,82.64
2019-06-07T05:42:46.822Z,82.03
2019-06-07T05:43:55.095Z,81.88
2019-06-07T05:44:46.052Z,82.33
2019-06-07T05:45:47.006Z,82.03
2019-06-07T05:46:47.245Z,82.09
2019-06-07T05:47:50.616Z,81.82
2019-06-07T05:48:45.898Z,81.99
2019-06-07T05:49:47.337Z,81.99
2019-06-07T05:50:56.073Z,82.09
2019-06-07T05:51:45.841Z,82.09
2019-06-07T05:52:47.387Z,82.19
2019-06-07T05:53:46.030Z,82.19
2019-06-07T05:54:46.839Z,82.19
2019-06-07T05:55:47.246Z,81.58
2019-06-07T05:56:45.366Z,81.48
2019-06-07T05:57:49.158Z,81.13
2019-06-07T05:58:45.769Z,81.44
2019-06-07T05:59:47.221Z,81.54
2019-06-07T06:00:47.405Z,81.13
2019-06-07T06:01:56.650Z,81.34
2019-06-07T06:03:04.298Z,81.13
2019-06-07T06:03:48.210Z,81.13
2019-06-07T06:04:48.722Z,80.73
2019-06-07T06:05:53.977Z,81.34
2019-06-07T06:06:47.183Z,80.79
2019-06-07T06:07:50.221Z,81.10
2019-06-07T06:08:47.921Z,80.59
2019-06-07T06:09:46.114Z,80.83
2019-06-07T06:10:48.310Z,80.49
2019-06-07T06:11:58.670Z,80.59
2019-06-07T06:12:51.546Z,80.99
2019-06-07T06:14:05.926Z,80.59
2019-06-07T06:14:47.071Z,81.10
2019-06-07T06:15:56.339Z,80.59
2019-06-07T06:16:48.002Z,80.79
2019-06-07T06:17:47.985Z,80.65
2019-06-07T06:18:47.216Z,80.55
2019-06-07T06:19:47.370Z,80.96
2019-06-07T06:21:12.803Z,80.76
2019-06-07T06:21:46.497Z,80.55
2019-06-07T06:22:48.814Z,80.62
2019-06-07T06:23:48.117Z,80.92
2019-06-07T06:25:17.231Z,80.51
2019-06-07T06:25:53.241Z,80.92
2019-06-07T06:26:51.384Z,80.51
2019-06-07T06:28:45.488Z,79.70
2019-06-07T06:29:46.398Z,79.80
2019-06-07T06:30:47.549Z,79.90
2019-06-07T06:32:35.821Z,79.39
2019-06-07T06:32:52.661Z,79.29
2019-06-07T06:33:47.474Z,79.60
2019-06-07T06:34:47.084Z,78.75
2019-06-07T06:35:48.991Z,78.89
2019-06-07T06:36:47.772Z,79.05
2019-06-07T06:37:50.084Z,79.36
2019-06-07T06:38:47.123Z,79.36
2019-06-07T06:39:46.684Z,79.46
2019-06-07T06:40:49.056Z,78.14
2019-06-07T06:41:56.756Z,78.10
2019-06-07T06:42:48.560Z,77.83
2019-06-07T06:43:49.446Z,77.80
2019-06-07T06:44:47.125Z,78.00
2019-06-07T06:45:49.771Z,77.59
2019-06-07T06:46:50.171Z,76.54
2019-06-07T06:47:47.655Z,76.24
2019-06-07T06:48:48.363Z,76.34
2019-06-07T06:49:46.827Z,76.85
2019-06-07T06:50:46.692Z,76.64
2019-06-07T06:51:47.847Z,76.54
2019-06-07T06:52:48.520Z,76.24
2019-06-07T06:53:46.876Z,76.64
2019-06-07T06:54:50.823Z,75.93
2019-06-07T06:55:49.248Z,75.70
2019-06-07T06:56:46.921Z,75.59
2019-06-07T06:57:45.739Z,76.20
2019-06-07T06:59:27.247Z,75.79
2019-06-07T06:59:47.601Z,76.40
2019-06-07T07:00:53.552Z,76.00
2019-06-07T07:01:49.434Z,76.00
2019-06-07T07:03:35.055Z,75.79
2019-06-07T07:04:12.025Z,75.76
2019-06-07T07:04:46.123Z,75.49
2019-06-07T07:05:46.448Z,75.70
2019-06-07T07:06:45.542Z,75.86
2019-06-07T07:07:45.424Z,75.46
2019-06-07T07:08:47.438Z,75.25
2019-06-07T07:09:51.013Z,75.05
2019-06-07T07:10:45.961Z,75.56
2019-06-07T07:11:58.945Z,74.95
2019-06-07T07:12:45.468Z,74.81
2019-06-07T07:13:46.556Z,75.46
2019-06-07T07:14:47.264Z,74.41
2019-06-07T07:15:46.827Z,74.00
2019-06-07T07:16:45.775Z,73.80
2019-06-07T07:17:53.987Z,74.51
2019-06-07T07:18:47.540Z,74.17
2019-06-07T07:19:47.966Z,74.07
2019-06-07T07:20:45.416Z,74.37
2019-06-07T07:21:45.813Z,74.37
2019-06-07T07:22:46.486Z,74.37
2019-06-07T07:24:08.234Z,73.97
2019-06-07T07:24:46.855Z,74.17
2019-06-07T07:25:46.933Z,74.27
2019-06-07T07:26:46.769Z,73.66
2019-06-07T07:27:44.637Z,73.46
2019-06-07T07:28:46.607Z,72.92
2019-06-07T07:29:47.843Z,72.81
2019-06-07T07:30:45.035Z,72.81
2019-06-07T07:31:45.648Z,73.43
2019-06-07T07:32:45.608Z,73.43
2019-06-07T07:34:24.045Z,73.53
2019-06-07T07:34:46.030Z,73.12
2019-06-07T07:36:07.849Z,72.52
2019-06-07T07:36:47.617Z,72.52
2019-06-07T07:37:46.136Z,72.68
2019-06-07T07:38:48.947Z,72.78
2019-06-07T07:39:48.106Z,72.48
2019-06-07T07:42:10.620Z,72.08
2019-06-07T07:42:45.198Z,72.28
2019-06-07T07:43:45.723Z,72.58
2019-06-07T07:44:46.596Z,72.38
2019-06-07T07:45:45.922Z,72.48
2019-06-07T07:46:44.999Z,72.88
2019-06-07T07:48:01.813Z,72.85
2019-06-07T07:48:45.947Z,72.65
2019-06-07T07:49:44.717Z,72.85
2019-06-07T07:50:47.558Z,72.44
2019-06-07T07:51:44.562Z,71.73
2019-06-07T07:52:45.828Z,71.23
2019-06-07T07:53:51.894Z,71.33
2019-06-07T07:54:44.530Z,72.11
2019-06-07T07:55:45.068Z,72.41
2019-06-07T07:56:45.739Z,71.80
2019-06-07T07:57:45.855Z,72.01
2019-06-07T07:58:46.190Z,72.61
2019-06-07T08:00:01.502Z,72.08
2019-06-07T08:01:04.759Z,71.37
2019-06-07T08:01:46.019Z,70.96
2019-06-07T08:02:43.452Z,70.66
2019-06-07T08:03:43.438Z,71.06
2019-06-07T08:05:13.725Z,70.56
2019-06-07T08:05:45.680Z,71.17
2019-06-07T08:06:43.402Z,70.86
2019-06-07T08:07:43.397Z,70.66
2019-06-07T08:08:43.382Z,70.96
2019-06-07T08:09:43.531Z,71.26
2019-06-07T08:10:43.372Z,71.33
2019-06-07T08:11:43.378Z,71.84
2019-06-07T08:12:59.065Z,71.53
2019-06-07T08:13:44.328Z,70.93
2019-06-07T08:14:43.320Z,70.42
2019-06-07T08:15:43.318Z,70.62
2019-06-07T08:16:43.300Z,70.53
2019-06-07T08:17:43.329Z,70.53
2019-06-07T08:18:43.290Z,71.23
2019-06-07T08:19:43.266Z,71.10
2019-06-07T08:21:05.036Z,71.00
2019-06-07T08:21:44.249Z,70.49
2019-06-07T08:22:43.241Z,70.69
2019-06-07T08:23:43.233Z,70.56
2019-06-07T08:24:43.266Z,70.86
2019-06-07T08:25:43.212Z,70.26
2019-06-07T08:26:43.190Z,70.46
2019-06-07T08:27:43.180Z,69.35
2019-06-07T08:28:43.169Z,70.26
2019-06-07T08:29:45.487Z,70.26
2019-06-07T08:30:51.259Z,70.22
2019-06-07T08:31:44.138Z,70.22
2019-06-07T08:32:43.128Z,70.12
2019-06-07T08:33:43.122Z,69.62
2019-06-07T08:34:43.106Z,69.52
2019-06-07T08:36:06.044Z,68.91
2019-06-07T08:36:44.099Z,68.98
2019-06-07T08:38:14.912Z,69.28
2019-06-07T08:38:47.846Z,69.99
2019-06-07T08:39:44.053Z,68.98
2019-06-07T08:40:43.076Z,69.48
2019-06-07T08:41:53.976Z,68.54
2019-06-07T08:43:04.574Z,69.15
2019-06-07T08:43:44.009Z,69.05
2019-06-07T08:44:43.003Z,68.85
2019-06-07T08:45:43.022Z,68.74
2019-06-07T08:46:43.004Z,68.65
2019-06-07T08:47:42.968Z,68.41
2019-06-07T08:48:42.958Z,68.65
2019-06-07T08:49:43.017Z,68.31
2019-06-07T08:50:42.965Z,68.31
2019-06-07T08:51:42.930Z,68.08
2019-06-07T08:52:42.918Z,67.47
2019-06-07T08:53:42.905Z,67.77
2019-06-07T08:54:42.894Z,67.47
2019-06-07T08:55:42.891Z,66.97
2019-06-07T08:56:43.511Z,68.24
2019-06-07T08:57:42.859Z,68.04
2019-06-07T08:58:42.849Z,67.24
2019-06-07T08:59:42.841Z,66.63
2019-06-07T09:00:46.504Z,66.83
2019-06-07T09:01:42.817Z,67.44
2019-06-07T09:02:42.809Z,66.80
2019-06-07T09:03:42.796Z,66.50
2019-06-07T09:04:43.277Z,67.00
2019-06-07T09:05:42.800Z,66.97
2019-06-07T09:07:43.751Z,66.57
2019-06-07T09:08:42.745Z,65.47
2019-06-07T09:09:42.733Z,64.96
2019-06-07T09:10:42.739Z,66.03
2019-06-07T09:11:42.711Z,65.73
2019-06-07T09:12:42.701Z,65.64
2019-06-07T09:13:42.691Z,65.64
2019-06-07T09:14:59.815Z,65.94
2019-06-07T09:15:43.683Z,64.80
2019-06-07T09:16:42.666Z,64.70
2019-06-07T09:18:29.774Z,64.80
2019-06-07T09:18:45.114Z,65.57
2019-06-07T09:19:42.628Z,64.67
2019-06-07T09:20:42.659Z,64.17
2019-06-07T09:21:42.604Z,64.37
2019-06-07T09:22:42.653Z,63.84
2019-06-07T09:23:42.586Z,63.73
2019-06-07T09:24:42.572Z,63.93
2019-06-07T09:25:56.617Z,63.93
2019-06-07T09:26:43.568Z,64.01
2019-06-07T09:27:42.541Z,62.00
2019-06-07T09:28:42.535Z,63.10
2019-06-07T09:29:42.522Z,62.40
2019-06-07T09:30:42.511Z,62.57
2019-06-07T09:31:52.674Z,62.67
2019-06-07T09:32:43.495Z,62.07
2019-06-07T09:33:42.475Z,61.74
2019-06-07T09:34:42.466Z,62.14
2019-06-07T09:35:42.464Z,61.74
2019-06-07T09:36:42.452Z,61.64
2019-06-07T09:38:43.421Z,61.21
2019-06-07T09:39:42.442Z,61.81
2019-06-07T09:40:42.406Z,62.01
2019-06-07T09:41:49.287Z,61.31
2019-06-07T09:42:43.380Z,61.38
2019-06-07T09:44:43.357Z,61.48
2019-06-07T09:45:42.351Z,60.18
2019-06-07T09:46:42.384Z,59.48
2019-06-07T09:47:42.327Z,59.48
2019-06-07T09:49:43.310Z,59.45
2019-06-07T09:50:42.297Z,59.85
2019-06-07T09:51:42.324Z,59.75
2019-06-07T09:52:57.757Z,60.22
2019-06-07T09:53:43.263Z,60.32
2019-06-07T09:55:05.849Z,60.02
2019-06-07T09:55:43.242Z,59.32
2019-06-07T09:56:42.235Z,59.02
2019-06-07T09:57:42.239Z,59.30
2019-06-07T09:58:52.449Z,58.29
2019-06-07T09:59:43.201Z,58.00
2019-06-07T10:00:42.949Z,59.59
2019-06-07T10:01:42.184Z,58.47
2019-06-07T10:02:42.169Z,58.47
2019-06-07T10:03:42.162Z,57.87
2019-06-07T10:04:42.165Z,58.14
2019-06-07T10:05:42.138Z,57.93
2019-06-07T10:06:42.151Z,57.54
2019-06-07T10:07:59.566Z,58.24
2019-06-07T10:10:09.918Z,58.44
2019-06-07T10:10:43.427Z,57.44
2019-06-07T10:11:42.078Z,57.71
2019-06-07T10:12:42.063Z,58.54
2019-06-07T10:13:42.052Z,57.41
2019-06-07T10:14:45.126Z,57.11
2019-06-07T10:15:42.042Z,56.21
2019-06-07T10:16:46.760Z,56.21
2019-06-07T10:17:43.008Z,56.54
2019-06-07T10:18:42.002Z,56.51
2019-06-07T10:19:41.986Z,56.61
2019-06-07T10:20:41.976Z,56.41
2019-06-07T10:21:41.976Z,56.18
2019-06-07T10:22:41.989Z,56.29
2019-06-07T10:23:41.958Z,57.68
2019-06-07T10:24:41.936Z,57.28
2019-06-07T10:25:41.931Z,56.29
2019-06-07T10:26:41.933Z,55.79
2019-06-07T10:27:41.904Z,56.18
2019-06-07T10:28:41.891Z,56.29
2019-06-07T10:29:41.882Z,56.26
2019-06-07T10:30:41.891Z,55.46
2019-06-07T10:31:41.868Z,55.26
2019-06-07T10:32:41.847Z,54.86
2019-06-07T10:33:41.848Z,55.36
2019-06-07T10:34:41.826Z,54.96
2019-06-07T10:35:41.815Z,55.63
2019-06-07T10:36:41.842Z,55.73
2019-06-07T10:37:41.795Z,56.01
2019-06-07T10:38:41.851Z,56.10
2019-06-07T10:39:48.641Z,56.40
2019-06-07T10:40:42.759Z,55.51
2019-06-07T10:41:41.760Z,55.11
2019-06-07T10:42:41.741Z,55.71
2019-06-07T10:43:41.739Z,55.38
2019-06-07T10:44:41.724Z,54.19
2019-06-07T10:45:41.706Z,53.89
2019-06-07T10:46:41.744Z,53.69
2019-06-07T10:47:41.685Z,54.08
2019-06-07T10:48:41.690Z,53.78
2019-06-07T10:49:41.666Z,53.69
2019-06-07T10:50:41.655Z,54.79
2019-06-07T10:51:41.656Z,53.59
2019-06-07T10:52:41.635Z,53.76
2019-06-07T10:53:41.623Z,53.56
2019-06-07T10:54:41.617Z,53.66
2019-06-07T10:55:41.602Z,53.46
2019-06-07T10:56:41.600Z,52.76
2019-06-07T10:57:41.582Z,52.34
2019-06-07T10:58:41.574Z,52.84
2019-06-07T10:59:41.559Z,52.14
2019-06-07T11:00:41.572Z,52.62
2019-06-07T11:01:41.550Z,53.31
2019-06-07T11:02:41.534Z,52.81
2019-06-07T11:03:41.516Z,52.81
2019-06-07T11:04:41.506Z,53.41
2019-06-07T11:05:41.496Z,54.01
2019-06-07T11:06:41.488Z,53.88
2019-06-07T11:07:41.500Z,53.78
2019-06-07T11:08:41.464Z,53.71
2019-06-07T11:09:41.456Z,53.78
2019-06-07T11:10:41.443Z,54.38
2019-06-07T11:11:41.435Z,53.39
2019-06-07T11:12:41.436Z,52.26
2019-06-07T11:13:41.414Z,52.17
2019-06-07T11:14:41.412Z,51.57
2019-06-07T11:15:41.391Z,52.17
2019-06-07T11:16:41.380Z,52.37
2019-06-07T11:17:41.383Z,52.96
2019-06-07T11:18:41.360Z,53.46
2019-06-07T11:19:41.349Z,52.94
2019-06-07T11:20:41.339Z,53.04
2019-06-07T11:21:41.327Z,52.54
2019-06-07T11:22:41.326Z,52.44
2019-06-07T11:23:41.307Z,50.63
2019-06-07T11:24:41.304Z,50.23
2019-06-07T11:25:41.290Z,49.24
2019-06-07T11:26:41.276Z,49.51
2019-06-07T11:27:41.277Z,48.35
2019-06-07T11:28:41.254Z,49.51
2019-06-07T11:29:41.243Z,48.82
2019-06-07T11:30:41.232Z,50.01
2019-06-07T11:31:41.233Z,50.11
2019-06-07T11:32:41.309Z,49.99
2019-06-07T11:33:41.201Z,50.18
2019-06-07T11:34:41.190Z,49.99
2019-06-07T11:35:41.181Z,49.88
2019-06-07T11:36:41.169Z,49.19
2019-06-07T11:37:41.170Z,48.69
2019-06-07T11:38:41.150Z,48.60
2019-06-07T11:39:41.141Z,48.67
2019-06-07T11:40:41.128Z,48.27
2019-06-07T11:41:41.117Z,48.08
2019-06-07T11:42:41.122Z,48.65
2019-06-07T11:43:41.098Z,47.96
2019-06-07T11:44:55.758Z,47.46
2019-06-07T11:45:42.075Z,47.96
2019-06-07T11:46:41.072Z,48.43
2019-06-07T11:47:41.065Z,50.31
2019-06-07T11:48:41.044Z,48.13
2019-06-07T11:49:41.037Z,48.72
2019-06-07T11:50:41.024Z,47.04
2019-06-07T11:51:41.012Z,47.02
2019-06-07T11:52:41.013Z,46.92
2019-06-07T11:53:41.002Z,47.59
2019-06-07T11:54:40.982Z,46.30
2019-06-07T11:55:40.973Z,46.40
2019-06-07T11:56:40.959Z,46.67
2019-06-07T11:57:40.960Z,46.38
2019-06-07T11:58:40.938Z,46.67
2019-06-07T11:59:40.935Z,46.08
2019-06-07T12:00:40.923Z,46.48
2019-06-07T12:01:40.907Z,46.38
2019-06-07T12:02:40.910Z,45.96
2019-06-07T12:03:40.954Z,45.67
2019-06-07T12:04:40.876Z,46.14
2019-06-07T12:05:40.864Z,45.05
2019-06-07T12:06:40.856Z,45.74
2019-06-07T12:07:40.860Z,45.62
2019-06-07T12:08:40.832Z,44.34
2019-06-07T12:09:55.495Z,43.84
2019-06-07T12:10:42.850Z,44.14
2019-06-07T12:11:40.804Z,44.04
2019-06-07T12:12:40.806Z,44.32
2019-06-07T12:13:40.782Z,43.01
2019-06-07T12:14:40.771Z,43.21
2019-06-07T12:15:40.764Z,42.61
2019-06-07T12:16:40.755Z,42.32
2019-06-07T12:17:40.764Z,42.72
2019-06-07T12:18:40.730Z,43.78
2019-06-07T12:19:40.729Z,43.38
2019-06-07T12:20:40.709Z,43.17
2019-06-07T12:21:40.746Z,42.18
2019-06-07T12:22:40.704Z,41.17
2019-06-07T12:23:40.683Z,40.69
2019-06-07T12:24:40.668Z,40.66
2019-06-07T12:25:40.658Z,40.16
2019-06-07T12:26:40.654Z,40.82
2019-06-07T12:27:40.637Z,40.70
2019-06-07T12:28:40.630Z,40.17
2019-06-07T12:29:40.617Z,38.68
2019-06-07T12:30:40.609Z,38.06
2019-06-07T12:31:40.601Z,37.21
2019-06-07T12:32:40.588Z,35.30
2019-06-07T12:33:40.583Z,34.06
2019-06-07T12:34:40.573Z,32.75
2019-06-07T12:35:40.560Z,32.10
2019-06-07T12:36:40.555Z,30.98
2019-06-07T12:37:44.205Z,30.07
2019-06-07T12:38:40.534Z,28.07
2019-06-07T12:39:40.523Z,26.87
2019-06-07T12:40:40.515Z,26.44
2019-06-07T12:41:40.506Z,24.96
2019-06-07T12:42:40.498Z,23.67
2019-06-07T12:43:40.490Z,23.35
2019-06-07T12:44:40.481Z,23.12
2019-06-07T12:45:45.237Z,22.42
2019-06-07T12:46:41.464Z,21.83
2019-06-07T12:47:40.454Z,20.56
2019-06-07T12:48:40.448Z,20.36
2019-06-07T12:49:40.437Z,20.26
2019-06-07T12:50:42.950Z,20.06
2019-06-07T12:51:40.426Z,20.06
2019-06-07T12:52:40.417Z,20.15
2019-06-07T12:53:40.411Z,20.25
2019-06-07T12:54:40.400Z,19.84
2019-06-07T12:55:40.389Z,20.30
2019-06-07T12:56:40.381Z,19.62
2019-06-07T12:57:40.374Z,19.52
2019-06-07T12:58:40.367Z,19.42
2019-06-07T12:59:40.357Z,19.51
2019-06-07T13:00:40.349Z,19.39
2019-06-07T13:01:40.342Z,18.35
2019-06-07T13:02:40.337Z,18.35